sensor_id;sensor_type;location;lat;lon;timestamp;P1;durP1;ratioP1;P2;durP2;ratioP2
17169;SDS011;8700;48.222;16.342;2022-09-09T00:03:23;2.20;;;2.10;;
17169;SDS011;8700;48.222;16.342;2022-09-09T00:06:50;2.83;;;2.63;;
17169;SDS011;8700;48.222;16.342;2022-09-09T00:10:22;2.67;;;2.55;;
17169;SDS011;8700;48.222;16.342;2022-09-09T00:13:48;1.90;;;1.80;;
17169;SDS011;8700;48.222;16.342;2022-09-09T00:17:16;2.58;;;2.47;;
17169;SDS011;8700;48.222;16.342;2022-09-09T00:20:47;1.98;;;1.88;;
17169;SDS011;8700;48.222;16.342;2022-09-09T00:24:16;2.67;;;2.47;;
17169;SDS011;8700;48.222;16.342;2022-09-09T00:27:47;2.45;;;2.35;;
17169;SDS011;8700;48.222;16.342;2022-09-09T00:31:12;3.00;;;2.80;;
17169;SDS011;8700;48.222;16.342;2022-09-09T00:34:35;2.45;;;2.25;;
17169;SDS011;8700;48.222;16.342;2022-09-09T00:38:10;2.30;;;2.20;;
17169;SDS011;8700;48.222;16.342;2022-09-09T00:41:38;2.72;;;2.53;;
17169;SDS011;8700;48.222;16.342;2022-09-09T00:45:16;2.75;;;2.55;;
17169;SDS011;8700;48.222;16.342;2022-09-09T00:48:52;3.08;;;2.72;;
17169;SDS011;8700;48.222;16.342;2022-09-09T00:52:23;2.58;;;2.38;;
17169;SDS011;8700;48.222;16.342;2022-09-09T00:55:54;2.47;;;2.38;;
17169;SDS011;8700;48.222;16.342;2022-09-09T00:59:28;1.98;;;1.88;;
17169;SDS011;8700;48.222;16.342;2022-09-09T01:02:59;4.15;;;2.15;;
17169;SDS011;8700;48.222;16.342;2022-09-09T01:06:31;2.03;;;1.77;;
17169;SDS011;8700;48.222;16.342;2022-09-09T01:09:56;2.20;;;2.10;;
17169;SDS011;8700;48.222;16.342;2022-09-09T01:13:22;1.80;;;1.77;;
17169;SDS011;8700;48.222;16.342;2022-09-09T01:16:45;2.10;;;2.00;;
17169;SDS011;8700;48.222;16.342;2022-09-09T01:20:12;2.03;;;1.92;;
17169;SDS011;8700;48.222;16.342;2022-09-09T01:23:45;2.45;;;2.35;;
17169;SDS011;8700;48.222;16.342;2022-09-09T01:27:32;2.45;;;2.28;;
17169;SDS011;8700;48.222;16.342;2022-09-09T01:30:56;2.28;;;2.17;;
17169;SDS011;8700;48.222;16.342;2022-09-09T01:34:19;2.05;;;1.95;;
17169;SDS011;8700;48.222;16.342;2022-09-09T01:37:41;2.05;;;1.95;;
17169;SDS011;8700;48.222;16.342;2022-09-09T01:41:03;2.75;;;2.55;;
17169;SDS011;8700;48.222;16.342;2022-09-09T01:44:26;1.90;;;1.60;;
17169;SDS011;8700;48.222;16.342;2022-09-09T01:47:49;2.17;;;2.08;;
17169;SDS011;8700;48.222;16.342;2022-09-09T01:51:11;2.38;;;2.28;;
17169;SDS011;8700;48.222;16.342;2022-09-09T01:54:32;1.88;;;1.77;;
17169;SDS011;8700;48.222;16.342;2022-09-09T01:57:56;2.70;;;2.60;;
17169;SDS011;8700;48.222;16.342;2022-09-09T02:01:37;2.55;;;2.35;;
17169;SDS011;8700;48.222;16.342;2022-09-09T02:05:10;2.20;;;2.10;;
17169;SDS011;8700;48.222;16.342;2022-09-09T02:08:39;2.25;;;2.15;;
17169;SDS011;8700;48.222;16.342;2022-09-09T02:12:05;2.50;;;2.40;;
17169;SDS011;8700;48.222;16.342;2022-09-09T02:15:32;2.65;;;2.10;;
17169;SDS011;8700;48.222;16.342;2022-09-09T02:19:02;2.53;;;2.33;;
17169;SDS011;8700;48.222;16.342;2022-09-09T02:22:30;2.05;;;1.95;;
17169;SDS011;8700;48.222;16.342;2022-09-09T02:25:54;2.53;;;2.33;;
17169;SDS011;8700;48.222;16.342;2022-09-09T02:29:19;2.90;;;2.28;;
17169;SDS011;8700;48.222;16.342;2022-09-09T02:32:44;2.47;;;2.30;;
17169;SDS011;8700;48.222;16.342;2022-09-09T02:36:08;2.53;;;2.33;;
17169;SDS011;8700;48.222;16.342;2022-09-09T02:39:32;2.40;;;2.20;;
17169;SDS011;8700;48.222;16.342;2022-09-09T02:42:54;2.25;;;2.15;;
17169;SDS011;8700;48.222;16.342;2022-09-09T02:46:21;2.83;;;2.72;;
17169;SDS011;8700;48.222;16.342;2022-09-09T02:49:56;3.15;;;3.00;;
17169;SDS011;8700;48.222;16.342;2022-09-09T02:53:26;3.08;;;2.85;;
17169;SDS011;8700;48.222;16.342;2022-09-09T02:56:53;3.20;;;3.00;;
17169;SDS011;8700;48.222;16.342;2022-09-09T03:00:22;2.85;;;2.63;;
17169;SDS011;8700;48.222;16.342;2022-09-09T03:03:45;2.55;;;2.42;;
17169;SDS011;8700;48.222;16.342;2022-09-09T03:07:06;6.13;;;3.17;;
17169;SDS011;8700;48.222;16.342;2022-09-09T03:10:30;2.28;;;2.08;;
17169;SDS011;8700;48.222;16.342;2022-09-09T03:13:52;2.90;;;2.70;;
17169;SDS011;8700;48.222;16.342;2022-09-09T03:17:15;2.47;;;2.38;;
17169;SDS011;8700;48.222;16.342;2022-09-09T03:20:37;3.08;;;2.88;;
17169;SDS011;8700;48.222;16.342;2022-09-09T03:23:58;2.92;;;2.67;;
17169;SDS011;8700;48.222;16.342;2022-09-09T03:27:21;3.67;;;3.38;;
17169;SDS011;8700;48.222;16.342;2022-09-09T03:30:43;3.30;;;3.10;;
17169;SDS011;8700;48.222;16.342;2022-09-09T03:34:05;3.63;;;3.33;;
17169;SDS011;8700;48.222;16.342;2022-09-09T03:37:27;3.17;;;3.00;;
17169;SDS011;8700;48.222;16.342;2022-09-09T03:40:50;3.22;;;3.03;;
17169;SDS011;8700;48.222;16.342;2022-09-09T03:44:15;3.88;;;3.50;;
17169;SDS011;8700;48.222;16.342;2022-09-09T03:47:37;3.40;;;2.60;;
17169;SDS011;8700;48.222;16.342;2022-09-09T03:50:58;3.35;;;3.05;;
17169;SDS011;8700;48.222;16.342;2022-09-09T03:54:20;5.25;;;4.78;;
17169;SDS011;8700;48.222;16.342;2022-09-09T03:57:42;4.93;;;3.28;;
17169;SDS011;8700;48.222;16.342;2022-09-09T04:01:06;3.83;;;3.45;;
17169;SDS011;8700;48.222;16.342;2022-09-09T04:04:28;3.30;;;3.10;;
17169;SDS011;8700;48.222;16.342;2022-09-09T04:07:50;5.10;;;3.33;;
17169;SDS011;8700;48.222;16.342;2022-09-09T04:11:11;3.92;;;3.63;;
17169;SDS011;8700;48.222;16.342;2022-09-09T04:14:33;6.05;;;4.40;;
17169;SDS011;8700;48.222;16.342;2022-09-09T04:17:56;4.15;;;3.50;;
17169;SDS011;8700;48.222;16.342;2022-09-09T04:21:18;6.05;;;5.38;;
17169;SDS011;8700;48.222;16.342;2022-09-09T04:24:39;4.63;;;4.32;;
17169;SDS011;8700;48.222;16.342;2022-09-09T04:28:01;4.45;;;4.10;;
17169;SDS011;8700;48.222;16.342;2022-09-09T04:31:23;4.65;;;4.35;;
17169;SDS011;8700;48.222;16.342;2022-09-09T04:34:47;4.00;;;3.60;;
17169;SDS011;8700;48.222;16.342;2022-09-09T04:38:08;3.67;;;3.38;;
17169;SDS011;8700;48.222;16.342;2022-09-09T04:41:30;4.38;;;4.18;;
17169;SDS011;8700;48.222;16.342;2022-09-09T04:44:51;3.90;;;3.63;;
17169;SDS011;8700;48.222;16.342;2022-09-09T04:48:17;4.65;;;3.50;;
17169;SDS011;8700;48.222;16.342;2022-09-09T04:51:42;5.20;;;3.28;;
17169;SDS011;8700;48.222;16.342;2022-09-09T04:55:04;5.15;;;4.50;;
17169;SDS011;8700;48.222;16.342;2022-09-09T04:58:27;4.40;;;3.88;;
17169;SDS011;8700;48.222;16.342;2022-09-09T05:01:52;5.32;;;4.55;;
17169;SDS011;8700;48.222;16.342;2022-09-09T05:05:15;4.75;;;4.45;;
17169;SDS011;8700;48.222;16.342;2022-09-09T05:08:41;4.25;;;3.85;;
17169;SDS011;8700;48.222;16.342;2022-09-09T05:12:04;5.38;;;5.07;;
17169;SDS011;8700;48.222;16.342;2022-09-09T05:15:28;4.55;;;4.25;;
17169;SDS011;8700;48.222;16.342;2022-09-09T05:18:50;5.03;;;4.72;;
17169;SDS011;8700;48.222;16.342;2022-09-09T05:22:12;3.97;;;3.67;;
17169;SDS011;8700;48.222;16.342;2022-09-09T05:25:34;6.30;;;5.80;;
17169;SDS011;8700;48.222;16.342;2022-09-09T05:28:59;4.88;;;4.53;;
17169;SDS011;8700;48.222;16.342;2022-09-09T05:32:21;8.05;;;5.55;;
17169;SDS011;8700;48.222;16.342;2022-09-09T05:35:43;5.20;;;4.75;;
17169;SDS011;8700;48.222;16.342;2022-09-09T05:39:06;9.70;;;8.80;;
17169;SDS011;8700;48.222;16.342;2022-09-09T05:42:31;15.38;;;14.10;;
17169;SDS011;8700;48.222;16.342;2022-09-09T05:45:59;9.55;;;8.93;;
17169;SDS011;8700;48.222;16.342;2022-09-09T05:49:22;6.07;;;5.65;;
17169;SDS011;8700;48.222;16.342;2022-09-09T05:52:43;6.93;;;4.50;;
17169;SDS011;8700;48.222;16.342;2022-09-09T05:56:05;5.82;;;5.45;;
17169;SDS011;8700;48.222;16.342;2022-09-09T05:59:30;6.03;;;5.43;;
17169;SDS011;8700;48.222;16.342;2022-09-09T06:02:52;6.38;;;5.78;;
17169;SDS011;8700;48.222;16.342;2022-09-09T06:06:14;6.13;;;5.47;;
17169;SDS011;8700;48.222;16.342;2022-09-09T06:09:41;6.68;;;5.95;;
17169;SDS011;8700;48.222;16.342;2022-09-09T06:13:02;6.55;;;6.05;;
17169;SDS011;8700;48.222;16.342;2022-09-09T06:16:26;6.78;;;6.03;;
17169;SDS011;8700;48.222;16.342;2022-09-09T06:19:48;5.65;;;5.25;;
17169;SDS011;8700;48.222;16.342;2022-09-09T06:23:13;7.60;;;5.72;;
17169;SDS011;8700;48.222;16.342;2022-09-09T06:26:35;6.20;;;5.70;;
17169;SDS011;8700;48.222;16.342;2022-09-09T06:30:00;7.07;;;6.43;;
17169;SDS011;8700;48.222;16.342;2022-09-09T06:33:25;8.27;;;7.45;;
17169;SDS011;8700;48.222;16.342;2022-09-09T06:36:57;8.65;;;7.22;;
17169;SDS011;8700;48.222;16.342;2022-09-09T06:40:18;7.15;;;6.63;;
17169;SDS011;8700;48.222;16.342;2022-09-09T06:43:40;9.07;;;6.45;;
17169;SDS011;8700;48.222;16.342;2022-09-09T06:47:04;6.80;;;6.22;;
17169;SDS011;8700;48.222;16.342;2022-09-09T06:50:27;9.00;;;8.30;;
17169;SDS011;8700;48.222;16.342;2022-09-09T06:53:50;6.18;;;5.60;;
17169;SDS011;8700;48.222;16.342;2022-09-09T06:57:13;8.43;;;6.20;;
17169;SDS011;8700;48.222;16.342;2022-09-09T07:00:34;7.82;;;6.50;;
17169;SDS011;8700;48.222;16.342;2022-09-09T07:03:58;7.30;;;6.40;;
17169;SDS011;8700;48.222;16.342;2022-09-09T07:07:21;6.00;;;5.50;;
17169;SDS011;8700;48.222;16.342;2022-09-09T07:10:45;6.18;;;5.57;;
17169;SDS011;8700;48.222;16.342;2022-09-09T07:14:07;5.80;;;5.15;;
17169;SDS011;8700;48.222;16.342;2022-09-09T07:17:30;6.55;;;6.10;;
17169;SDS011;8700;48.222;16.342;2022-09-09T07:20:54;9.30;;;5.63;;
17169;SDS011;8700;48.222;16.342;2022-09-09T07:24:19;7.60;;;6.85;;
17169;SDS011;8700;48.222;16.342;2022-09-09T07:27:40;8.90;;;6.47;;
17169;SDS011;8700;48.222;16.342;2022-09-09T07:31:02;11.63;;;6.32;;
17169;SDS011;8700;48.222;16.342;2022-09-09T07:34:25;8.10;;;5.65;;
17169;SDS011;8700;48.222;16.342;2022-09-09T07:37:47;6.55;;;6.03;;
17169;SDS011;8700;48.222;16.342;2022-09-09T07:41:10;6.70;;;5.15;;
17169;SDS011;8700;48.222;16.342;2022-09-09T07:44:33;6.47;;;5.88;;
17169;SDS011;8700;48.222;16.342;2022-09-09T07:47:56;6.38;;;5.85;;
17169;SDS011;8700;48.222;16.342;2022-09-09T07:51:19;6.65;;;5.57;;
17169;SDS011;8700;48.222;16.342;2022-09-09T07:54:42;5.70;;;5.20;;
17169;SDS011;8700;48.222;16.342;2022-09-09T07:58:06;8.40;;;6.05;;
17169;SDS011;8700;48.222;16.342;2022-09-09T08:01:29;6.15;;;5.30;;
17169;SDS011;8700;48.222;16.342;2022-09-09T08:04:51;6.15;;;5.55;;
17169;SDS011;8700;48.222;16.342;2022-09-09T08:08:13;5.78;;;5.28;;
17169;SDS011;8700;48.222;16.342;2022-09-09T08:11:36;8.13;;;5.97;;
17169;SDS011;8700;48.222;16.342;2022-09-09T08:15:00;6.32;;;5.50;;
17169;SDS011;8700;48.222;16.342;2022-09-09T08:18:22;6.18;;;5.57;;
17169;SDS011;8700;48.222;16.342;2022-09-09T08:21:44;9.27;;;8.38;;
17169;SDS011;8700;48.222;16.342;2022-09-09T08:25:08;6.47;;;5.70;;
17169;SDS011;8700;48.222;16.342;2022-09-09T08:28:30;6.97;;;6.38;;
17169;SDS011;8700;48.222;16.342;2022-09-09T08:31:54;6.13;;;5.53;;
17169;SDS011;8700;48.222;16.342;2022-09-09T08:35:16;6.65;;;6.13;;
17169;SDS011;8700;48.222;16.342;2022-09-09T08:38:39;9.27;;;6.10;;
17169;SDS011;8700;48.222;16.342;2022-09-09T08:42:08;7.38;;;6.47;;
17169;SDS011;8700;48.222;16.342;2022-09-09T08:45:49;9.65;;;7.03;;
17169;SDS011;8700;48.222;16.342;2022-09-09T08:49:24;7.28;;;5.93;;
17169;SDS011;8700;48.222;16.342;2022-09-09T08:53:09;7.03;;;5.25;;
17169;SDS011;8700;48.222;16.342;2022-09-09T08:56:36;5.80;;;5.20;;
17169;SDS011;8700;48.222;16.342;2022-09-09T08:59:58;4.93;;;4.47;;
17169;SDS011;8700;48.222;16.342;2022-09-09T09:03:22;4.88;;;4.45;;
17169;SDS011;8700;48.222;16.342;2022-09-09T09:06:53;4.90;;;4.20;;
17169;SDS011;8700;48.222;16.342;2022-09-09T09:10:25;4.22;;;3.85;;
17169;SDS011;8700;48.222;16.342;2022-09-09T09:14:00;4.63;;;3.50;;
17169;SDS011;8700;48.222;16.342;2022-09-09T09:17:25;4.03;;;3.72;;
17169;SDS011;8700;48.222;16.342;2022-09-09T09:20:54;6.22;;;4.13;;
17169;SDS011;8700;48.222;16.342;2022-09-09T09:24:25;3.40;;;3.20;;
17169;SDS011;8700;48.222;16.342;2022-09-09T09:27:55;4.25;;;3.85;;
17169;SDS011;8700;48.222;16.342;2022-09-09T09:31:21;3.97;;;3.67;;
17169;SDS011;8700;48.222;16.342;2022-09-09T09:34:48;4.68;;;2.83;;
17169;SDS011;8700;48.222;16.342;2022-09-09T09:38:15;3.55;;;3.25;;
17169;SDS011;8700;48.222;16.342;2022-09-09T09:41:41;5.22;;;4.70;;
17169;SDS011;8700;48.222;16.342;2022-09-09T09:45:12;15.65;;;14.35;;
17169;SDS011;8700;48.222;16.342;2022-09-09T09:48:39;3.08;;;2.72;;
17169;SDS011;8700;48.222;16.342;2022-09-09T09:52:02;3.13;;;2.92;;
17169;SDS011;8700;48.222;16.342;2022-09-09T09:55:25;3.83;;;2.47;;
17169;SDS011;8700;48.222;16.342;2022-09-09T09:58:51;9.45;;;8.70;;
17169;SDS011;8700;48.222;16.342;2022-09-09T10:02:15;3.85;;;3.60;;
17169;SDS011;8700;48.222;16.342;2022-09-09T10:05:39;3.15;;;2.95;;
17169;SDS011;8700;48.222;16.342;2022-09-09T10:09:18;2.58;;;2.38;;
17169;SDS011;8700;48.222;16.342;2022-09-09T10:12:46;3.33;;;2.97;;
17169;SDS011;8700;48.222;16.342;2022-09-09T10:16:21;2.28;;;2.15;;
17169;SDS011;8700;48.222;16.342;2022-09-09T10:20:12;2.88;;;2.55;;
17169;SDS011;8700;48.222;16.342;2022-09-09T10:23:51;2.65;;;2.05;;
17169;SDS011;8700;48.222;16.342;2022-09-09T10:27:28;6.88;;;2.78;;
17169;SDS011;8700;48.222;16.342;2022-09-09T10:31:01;2.00;;;1.90;;
17169;SDS011;8700;48.222;16.342;2022-09-09T10:34:40;2.20;;;2.03;;
17169;SDS011;8700;48.222;16.342;2022-09-09T10:38:14;3.88;;;3.58;;
17169;SDS011;8700;48.222;16.342;2022-09-09T10:41:41;3.80;;;3.50;;
17169;SDS011;8700;48.222;16.342;2022-09-09T10:45:15;3.67;;;3.38;;
17169;SDS011;8700;48.222;16.342;2022-09-09T10:48:46;3.15;;;2.88;;
17169;SDS011;8700;48.222;16.342;2022-09-09T10:52:27;4.68;;;3.22;;
17169;SDS011;8700;48.222;16.342;2022-09-09T10:55:54;3.50;;;3.20;;
17169;SDS011;8700;48.222;16.342;2022-09-09T10:59:20;3.33;;;3.13;;
17169;SDS011;8700;48.222;16.342;2022-09-09T11:02:47;3.58;;;3.35;;
17169;SDS011;8700;48.222;16.342;2022-09-09T11:06:14;5.55;;;4.10;;
17169;SDS011;8700;48.222;16.342;2022-09-09T11:09:41;3.72;;;3.53;;
17169;SDS011;8700;48.222;16.342;2022-09-09T11:13:14;3.58;;;3.28;;
17169;SDS011;8700;48.222;16.342;2022-09-09T11:16:39;3.40;;;3.20;;
17169;SDS011;8700;48.222;16.342;2022-09-09T11:20:05;6.25;;;5.75;;
17169;SDS011;8700;48.222;16.342;2022-09-09T11:23:32;4.05;;;3.72;;
17169;SDS011;8700;48.222;16.342;2022-09-09T11:27:03;3.95;;;3.25;;
17169;SDS011;8700;48.222;16.342;2022-09-09T11:30:32;3.70;;;3.50;;
17169;SDS011;8700;48.222;16.342;2022-09-09T11:34:20;6.38;;;5.88;;
17169;SDS011;8700;48.222;16.342;2022-09-09T11:37:59;4.13;;;3.72;;
17169;SDS011;8700;48.222;16.342;2022-09-09T11:41:34;4.03;;;3.72;;
17169;SDS011;8700;48.222;16.342;2022-09-09T11:45:07;3.80;;;3.50;;
17169;SDS011;8700;48.222;16.342;2022-09-09T11:48:34;3.42;;;3.22;;
17169;SDS011;8700;48.222;16.342;2022-09-09T11:51:57;3.35;;;3.05;;
17169;SDS011;8700;48.222;16.342;2022-09-09T11:55:24;3.75;;;3.50;;
17169;SDS011;8700;48.222;16.342;2022-09-09T11:58:53;4.75;;;4.18;;
17169;SDS011;8700;48.222;16.342;2022-09-09T12:02:21;3.53;;;3.22;;
17169;SDS011;8700;48.222;16.342;2022-09-09T12:05:44;4.97;;;4.63;;
17169;SDS011;8700;48.222;16.342;2022-09-09T12:09:08;4.97;;;3.78;;
17169;SDS011;8700;48.222;16.342;2022-09-09T12:12:38;4.75;;;3.05;;
17169;SDS011;8700;48.222;16.342;2022-09-09T12:15:59;3.60;;;3.30;;
17169;SDS011;8700;48.222;16.342;2022-09-09T12:19:26;4.10;;;3.30;;
17169;SDS011;8700;48.222;16.342;2022-09-09T12:22:52;3.30;;;3.10;;
17169;SDS011;8700;48.222;16.342;2022-09-09T12:26:27;4.38;;;3.70;;
17169;SDS011;8700;48.222;16.342;2022-09-09T12:29:54;3.00;;;2.78;;
17169;SDS011;8700;48.222;16.342;2022-09-09T12:33:22;5.32;;;3.53;;
17169;SDS011;8700;48.222;16.342;2022-09-09T12:36:46;3.30;;;3.00;;
17169;SDS011;8700;48.222;16.342;2022-09-09T12:40:19;4.00;;;3.80;;
17169;SDS011;8700;48.222;16.342;2022-09-09T12:43:42;3.50;;;3.30;;
17169;SDS011;8700;48.222;16.342;2022-09-09T12:47:05;3.92;;;3.53;;
17169;SDS011;8700;48.222;16.342;2022-09-09T12:50:27;3.40;;;3.20;;
17169;SDS011;8700;48.222;16.342;2022-09-09T12:53:53;3.45;;;3.15;;
17169;SDS011;8700;48.222;16.342;2022-09-09T12:57:15;3.08;;;2.88;;
17169;SDS011;8700;48.222;16.342;2022-09-09T13:00:37;3.78;;;3.47;;
17169;SDS011;8700;48.222;16.342;2022-09-09T13:04:18;3.35;;;3.15;;
17169;SDS011;8700;48.222;16.342;2022-09-09T13:07:41;5.22;;;4.80;;
17169;SDS011;8700;48.222;16.342;2022-09-09T13:11:06;5.32;;;4.97;;
17169;SDS011;8700;48.222;16.342;2022-09-09T13:14:31;8.95;;;8.15;;
17169;SDS011;8700;48.222;16.342;2022-09-09T13:17:57;4.32;;;4.00;;
17169;SDS011;8700;48.222;16.342;2022-09-09T13:21:31;3.42;;;3.22;;
17169;SDS011;8700;48.222;16.342;2022-09-09T13:25:00;4.28;;;2.70;;
17169;SDS011;8700;48.222;16.342;2022-09-09T13:28:26;3.92;;;3.63;;
17169;SDS011;8700;48.222;16.342;2022-09-09T13:31:50;3.65;;;3.00;;
17169;SDS011;8700;48.222;16.342;2022-09-09T13:35:22;2.92;;;2.72;;
17169;SDS011;8700;48.222;16.342;2022-09-09T13:38:52;4.32;;;4.03;;
17169;SDS011;8700;48.222;16.342;2022-09-09T13:42:19;5.78;;;3.45;;
17169;SDS011;8700;48.222;16.342;2022-09-09T13:45:53;3.38;;;3.17;;
17169;SDS011;8700;48.222;16.342;2022-09-09T13:49:19;6.88;;;5.88;;
17169;SDS011;8700;48.222;16.342;2022-09-09T13:52:42;3.40;;;3.20;;
17169;SDS011;8700;48.222;16.342;2022-09-09T13:56:04;3.45;;;3.17;;
17169;SDS011;8700;48.222;16.342;2022-09-09T13:59:26;3.40;;;3.13;;
17169;SDS011;8700;48.222;16.342;2022-09-09T14:02:49;3.05;;;2.85;;
17169;SDS011;8700;48.222;16.342;2022-09-09T14:06:12;4.05;;;3.85;;
17169;SDS011;8700;48.222;16.342;2022-09-09T14:09:33;5.43;;;3.17;;
17169;SDS011;8700;48.222;16.342;2022-09-09T14:12:55;3.78;;;3.45;;
17169;SDS011;8700;48.222;16.342;2022-09-09T14:16:20;3.55;;;3.35;;
17169;SDS011;8700;48.222;16.342;2022-09-09T14:19:43;4.55;;;4.05;;
17169;SDS011;8700;48.222;16.342;2022-09-09T14:23:05;4.40;;;3.67;;
17169;SDS011;8700;48.222;16.342;2022-09-09T14:26:30;5.72;;;4.20;;
17169;SDS011;8700;48.222;16.342;2022-09-09T14:29:52;3.97;;;3.63;;
17169;SDS011;8700;48.222;16.342;2022-09-09T14:33:14;3.85;;;3.55;;
17169;SDS011;8700;48.222;16.342;2022-09-09T14:36:40;5.72;;;5.22;;
17169;SDS011;8700;48.222;16.342;2022-09-09T14:40:04;6.13;;;5.45;;
17169;SDS011;8700;48.222;16.342;2022-09-09T14:43:26;5.03;;;4.63;;
17169;SDS011;8700;48.222;16.342;2022-09-09T14:46:49;4.78;;;4.38;;
17169;SDS011;8700;48.222;16.342;2022-09-09T14:50:10;6.10;;;5.60;;
17169;SDS011;8700;48.222;16.342;2022-09-09T14:53:35;10.73;;;10.02;;
17169;SDS011;8700;48.222;16.342;2022-09-09T14:56:57;7.38;;;6.68;;
17169;SDS011;8700;48.222;16.342;2022-09-09T15:00:19;9.70;;;7.22;;
17169;SDS011;8700;48.222;16.342;2022-09-09T15:03:41;5.93;;;5.50;;
17169;SDS011;8700;48.222;16.342;2022-09-09T15:07:08;6.40;;;5.80;;
17169;SDS011;8700;48.222;16.342;2022-09-09T15:10:31;5.30;;;4.55;;
17169;SDS011;8700;48.222;16.342;2022-09-09T15:13:53;5.55;;;5.07;;
17169;SDS011;8700;48.222;16.342;2022-09-09T15:17:15;6.05;;;5.47;;
17169;SDS011;8700;48.222;16.342;2022-09-09T15:20:36;7.25;;;6.65;;
17169;SDS011;8700;48.222;16.342;2022-09-09T15:23:58;5.78;;;5.10;;
17169;SDS011;8700;48.222;16.342;2022-09-09T15:27:21;5.13;;;4.30;;
17169;SDS011;8700;48.222;16.342;2022-09-09T15:30:46;4.00;;;3.80;;
17169;SDS011;8700;48.222;16.342;2022-09-09T15:34:08;4.68;;;4.43;;
17169;SDS011;8700;48.222;16.342;2022-09-09T15:37:30;4.95;;;4.65;;
17169;SDS011;8700;48.222;16.342;2022-09-09T15:40:53;4.00;;;3.70;;
17169;SDS011;8700;48.222;16.342;2022-09-09T15:44:16;4.85;;;4.55;;
17169;SDS011;8700;48.222;16.342;2022-09-09T15:47:38;5.45;;;5.05;;
17169;SDS011;8700;48.222;16.342;2022-09-09T15:51:00;6.30;;;5.68;;
17169;SDS011;8700;48.222;16.342;2022-09-09T15:54:24;5.40;;;5.00;;
17169;SDS011;8700;48.222;16.342;2022-09-09T15:57:46;5.18;;;4.78;;
17169;SDS011;8700;48.222;16.342;2022-09-09T16:01:09;6.75;;;6.18;;
17169;SDS011;8700;48.222;16.342;2022-09-09T16:04:32;6.90;;;6.40;;
17169;SDS011;8700;48.222;16.342;2022-09-09T16:07:53;7.22;;;6.60;;
17169;SDS011;8700;48.222;16.342;2022-09-09T16:11:16;5.75;;;5.32;;
17169;SDS011;8700;48.222;16.342;2022-09-09T16:14:40;6.65;;;6.13;;
17169;SDS011;8700;48.222;16.342;2022-09-09T16:18:03;5.20;;;4.70;;
17169;SDS011;8700;48.222;16.342;2022-09-09T16:21:26;5.53;;;5.13;;
17169;SDS011;8700;48.222;16.342;2022-09-09T16:24:50;5.28;;;4.43;;
17169;SDS011;8700;48.222;16.342;2022-09-09T16:28:11;5.25;;;4.95;;
17169;SDS011;8700;48.222;16.342;2022-09-09T16:31:33;5.70;;;5.20;;
17169;SDS011;8700;48.222;16.342;2022-09-09T16:34:55;6.78;;;6.00;;
17169;SDS011;8700;48.222;16.342;2022-09-09T16:38:17;5.07;;;4.68;;
17169;SDS011;8700;48.222;16.342;2022-09-09T16:41:38;5.50;;;5.00;;
17169;SDS011;8700;48.222;16.342;2022-09-09T16:45:02;5.70;;;5.22;;
17169;SDS011;8700;48.222;16.342;2022-09-09T16:48:26;5.93;;;5.32;;
17169;SDS011;8700;48.222;16.342;2022-09-09T16:51:50;6.15;;;5.75;;
17169;SDS011;8700;48.222;16.342;2022-09-09T16:55:13;7.15;;;6.45;;
17169;SDS011;8700;48.222;16.342;2022-09-09T16:58:34;5.43;;;4.68;;
17169;SDS011;8700;48.222;16.342;2022-09-09T17:01:58;5.32;;;4.82;;
17169;SDS011;8700;48.222;16.342;2022-09-09T17:05:20;4.15;;;3.85;;
17169;SDS011;8700;48.222;16.342;2022-09-09T17:08:44;5.13;;;4.70;;
17169;SDS011;8700;48.222;16.342;2022-09-09T17:12:08;6.00;;;5.50;;
17169;SDS011;8700;48.222;16.342;2022-09-09T17:15:31;6.07;;;5.57;;
17169;SDS011;8700;48.222;16.342;2022-09-09T17:18:53;4.78;;;4.47;;
17169;SDS011;8700;48.222;16.342;2022-09-09T17:22:16;3.60;;;3.40;;
17169;SDS011;8700;48.222;16.342;2022-09-09T17:25:40;4.00;;;3.50;;
17169;SDS011;8700;48.222;16.342;2022-09-09T17:29:02;4.10;;;3.80;;
17169;SDS011;8700;48.222;16.342;2022-09-09T17:32:24;5.82;;;5.00;;
17169;SDS011;8700;48.222;16.342;2022-09-09T17:35:45;4.25;;;3.85;;
17169;SDS011;8700;48.222;16.342;2022-09-09T17:39:07;6.32;;;5.40;;
17169;SDS011;8700;48.222;16.342;2022-09-09T17:42:30;6.78;;;6.03;;
17169;SDS011;8700;48.222;16.342;2022-09-09T17:45:52;5.07;;;4.72;;
17169;SDS011;8700;48.222;16.342;2022-09-09T17:49:14;5.32;;;5.03;;
17169;SDS011;8700;48.222;16.342;2022-09-09T17:52:37;4.40;;;4.00;;
17169;SDS011;8700;48.222;16.342;2022-09-09T17:56:03;4.28;;;3.95;;
17169;SDS011;8700;48.222;16.342;2022-09-09T17:59:27;4.00;;;3.70;;
17169;SDS011;8700;48.222;16.342;2022-09-09T18:02:49;4.75;;;4.25;;
17169;SDS011;8700;48.222;16.342;2022-09-09T18:06:12;4.43;;;4.03;;
17169;SDS011;8700;48.222;16.342;2022-09-09T18:09:34;6.18;;;5.75;;
17169;SDS011;8700;48.222;16.342;2022-09-09T18:12:57;4.32;;;4.03;;
17169;SDS011;8700;48.222;16.342;2022-09-09T18:16:22;5.13;;;3.88;;
17169;SDS011;8700;48.222;16.342;2022-09-09T18:19:50;3.92;;;3.72;;
17169;SDS011;8700;48.222;16.342;2022-09-09T18:23:11;3.75;;;3.53;;
17169;SDS011;8700;48.222;16.342;2022-09-09T18:26:33;4.00;;;3.65;;
17169;SDS011;8700;48.222;16.342;2022-09-09T18:29:55;3.50;;;3.30;;
17169;SDS011;8700;48.222;16.342;2022-09-09T18:33:18;4.30;;;3.90;;
17169;SDS011;8700;48.222;16.342;2022-09-09T18:36:40;3.70;;;3.50;;
17169;SDS011;8700;48.222;16.342;2022-09-09T18:40:03;3.92;;;3.70;;
17169;SDS011;8700;48.222;16.342;2022-09-09T18:43:25;4.32;;;4.03;;
17169;SDS011;8700;48.222;16.342;2022-09-09T18:46:47;4.43;;;4.03;;
17169;SDS011;8700;48.222;16.342;2022-09-09T18:50:12;5.28;;;4.97;;
17169;SDS011;8700;48.222;16.342;2022-09-09T18:53:34;4.85;;;4.45;;
17169;SDS011;8700;48.222;16.342;2022-09-09T18:56:56;3.63;;;3.42;;
17169;SDS011;8700;48.222;16.342;2022-09-09T19:00:19;3.42;;;3.22;;
17169;SDS011;8700;48.222;16.342;2022-09-09T19:03:40;4.00;;;3.70;;
17169;SDS011;8700;48.222;16.342;2022-09-09T19:07:03;2.85;;;2.65;;
17169;SDS011;8700;48.222;16.342;2022-09-09T19:10:25;4.18;;;3.88;;
17169;SDS011;8700;48.222;16.342;2022-09-09T19:13:48;3.67;;;3.38;;
17169;SDS011;8700;48.222;16.342;2022-09-09T19:17:11;3.92;;;3.63;;
17169;SDS011;8700;48.222;16.342;2022-09-09T19:20:33;3.50;;;3.30;;
17169;SDS011;8700;48.222;16.342;2022-09-09T19:23:56;3.85;;;3.58;;
17169;SDS011;8700;48.222;16.342;2022-09-09T19:27:19;3.00;;;2.80;;
17169;SDS011;8700;48.222;16.342;2022-09-09T19:30:41;4.00;;;3.70;;
17169;SDS011;8700;48.222;16.342;2022-09-09T19:34:06;2.75;;;2.65;;
17169;SDS011;8700;48.222;16.342;2022-09-09T19:37:27;3.72;;;3.45;;
17169;SDS011;8700;48.222;16.342;2022-09-09T19:40:52;3.28;;;3.08;;
17169;SDS011;8700;48.222;16.342;2022-09-09T19:44:14;2.75;;;2.58;;
17169;SDS011;8700;48.222;16.342;2022-09-09T19:47:36;2.67;;;2.58;;
17169;SDS011;8700;48.222;16.342;2022-09-09T19:50:59;2.60;;;2.50;;
17169;SDS011;8700;48.222;16.342;2022-09-09T19:54:23;3.35;;;2.95;;
17169;SDS011;8700;48.222;16.342;2022-09-09T19:57:46;3.30;;;3.00;;
17169;SDS011;8700;48.222;16.342;2022-09-09T20:01:09;4.03;;;3.83;;
17169;SDS011;8700;48.222;16.342;2022-09-09T20:04:32;3.40;;;3.10;;
17169;SDS011;8700;48.222;16.342;2022-09-09T20:07:53;5.07;;;3.25;;
17169;SDS011;8700;48.222;16.342;2022-09-09T20:11:17;3.47;;;3.25;;
17169;SDS011;8700;48.222;16.342;2022-09-09T20:14:40;3.47;;;3.28;;
17169;SDS011;8700;48.222;16.342;2022-09-09T20:18:01;4.38;;;4.07;;
17169;SDS011;8700;48.222;16.342;2022-09-09T20:21:24;3.45;;;3.22;;
17169;SDS011;8700;48.222;16.342;2022-09-09T20:24:46;4.18;;;3.88;;
17169;SDS011;8700;48.222;16.342;2022-09-09T20:28:08;4.20;;;3.88;;
17169;SDS011;8700;48.222;16.342;2022-09-09T20:31:31;4.50;;;4.20;;
17169;SDS011;8700;48.222;16.342;2022-09-09T20:34:54;4.75;;;4.45;;
17169;SDS011;8700;48.222;16.342;2022-09-09T20:38:16;4.88;;;4.47;;